Time;durP1;ratioP1;P1;durP2;ratioP2;P2;SDS_P1;SDS_P2;PMS_P1;PMS_P2;Temp;Humidity;BMP_temperature;BMP_pressure;BME280_temperature;BME280_humidity;BME280_pressure;Samples;Min_cycle;Max_cycle;Signal;HPM_P1;HPM_P2
2022/12/25 00:02:20;;;;;;;31.42;11.57;;;;;;;7.79;76.22;101394.88;1913660;75;21100;-60
2022/12/25 00:04:49;;;;;;;25.90;11.97;;;;;;;7.80;76.17;101393.11;1944316;74;21035;-60
2022/12/25 00:07:17;;;;;;;24.57;11.10;;;;;;;7.79;76.15;101396.64;1913640;75;21096;-54
2022/12/25 00:09:46;;;;;;;28.20;11.83;;;;;;;7.80;76.08;101397.93;1950861;73;21156;-59
2022/12/25 00:12:15;;;;;;;18.10;10.32;;;;;;;7.80;76.01;101396.62;1945651;74;21463;-59
2022/12/25 00:14:44;;;;;;;28.90;12.88;;;;;;;7.84;76.08;101397.40;1957919;73;21078;-60
2022/12/25 00:17:12;;;;;;;22.55;10.10;;;;;;;7.85;75.95;101391.28;1945705;74;21141;-59
2022/12/25 00:19:41;;;;;;;23.77;11.43;;;;;;;7.85;75.83;101389.52;1957858;73;21117;-59
2022/12/25 00:22:10;;;;;;;20.72;10.05;;;;;;;7.86;75.77;101396.95;1945623;74;21118;-59
2022/12/25 00:24:39;;;;;;;18.40;8.45;;;;;;;7.88;75.82;101398.65;1957858;73;21092;-58
2022/12/25 00:27:07;;;;;;;34.98;15.03;;;;;;;7.92;75.93;101396.84;1923437;74;21592;-59
2022/12/25 00:29:36;;;;;;;40.43;18.32;;;;;;;7.89;75.70;101392.95;1957849;73;21027;-59
2022/12/25 00:32:05;;;;;;;27.93;13.38;;;;;;;7.85;75.57;101389.97;1957803;73;21039;-58
2022/12/25 00:34:34;;;;;;;20.37;10.28;;;;;;;7.82;75.55;101399.19;1945724;74;21439;-59
2022/12/25 00:37:03;;;;;;;24.80;11.00;;;;;;;7.83;75.75;101395.69;1957855;73;21509;-59
2022/12/25 00:39:31;;;;;;;19.85;10.05;;;;;;;7.88;75.87;101396.48;1945464;73;21029;-60
2022/12/25 00:42:18;;;;;;;17.98;8.68;;;;;;;7.98;76.07;101396.72;1957910;73;21022;-60
2022/12/25 00:44:50;;;;;;;19.92;9.53;;;;;;;8.07;75.98;101392.62;1923759;74;21035;-59
2022/12/25 00:47:19;;;;;;;20.37;9.30;;;;;;;8.14;75.87;101392.53;1957796;73;21132;-59
2022/12/25 00:49:48;;;;;;;20.90;9.55;;;;;;;8.18;75.76;101394.20;1957970;73;21039;-59
2022/12/25 00:52:17;;;;;;;18.57;8.45;;;;;;;8.23;75.72;101391.05;1923479;74;21032;-59
2022/12/25 00:54:45;;;;;;;20.05;9.48;;;;;;;8.26;75.61;101385.72;1957815;73;21023;-59
2022/12/25 00:57:14;;;;;;;23.38;10.32;;;;;;;8.27;75.56;101387.01;1957938;73;21031;-58
2022/12/25 00:59:43;;;;;;;20.72;9.35;;;;;;;8.29;75.53;101384.36;1945579;73;21079;-59
2022/12/25 01:02:23;;;;;;;20.68;10.48;;;;;;;8.29;75.53;101381.73;1957833;73;21030;-59
2022/12/25 01:05:16;;;;;;;17.15;9.23;;;;;;;8.30;75.47;101383.48;1945674;74;21036;-58
2022/12/25 01:07:44;;;;;;;20.17;9.15;;;;;;;8.31;75.60;101377.32;1822199;79;21092;-59
2022/12/25 01:10:22;;;;;;;16.77;8.00;;;;;;;8.34;75.55;101374.64;1822136;79;21116;-59
2022/12/25 01:12:51;;;;;;;19.05;10.05;;;;;;;8.37;75.74;101368.00;1822081;79;21559;-48
2022/12/25 01:15:20;;;;;;;19.62;8.90;;;;;;;8.38;75.58;101372.37;1841325;78;21505;-53
2022/12/25 01:17:49;;;;;;;13.25;7.85;;;;;;;8.40;75.58;101367.95;1848111;78;21475;-59
2022/12/25 01:20:18;;;;;;;14.75;7.80;;;;;;;8.43;75.89;101371.02;1811025;79;21097;-60
2022/12/25 01:22:47;;;;;;;16.57;7.28;;;;;;;8.44;75.86;101359.15;1848256;78;21173;-60
2022/12/25 01:25:16;;;;;;;11.63;5.95;;;;;;;8.48;75.68;101360.84;1848086;78;21066;-60
2022/12/25 01:27:44;;;;;;;20.35;9.53;;;;;;;8.51;75.70;101365.16;1848093;78;21186;-60
2022/12/25 01:30:13;;;;;;;15.18;8.13;;;;;;;8.56;75.54;101361.10;1848100;78;21140;-60
2022/12/25 01:32:42;;;;;;;14.78;7.83;;;;;;;8.59;75.40;101351.86;1848146;78;21112;-60
2022/12/25 01:35:11;;;;;;;12.50;7.17;;;;;;;8.64;75.27;101355.27;1848121;78;21050;-59
2022/12/25 01:37:39;;;;;;;17.45;7.92;;;;;;;8.65;75.19;101355.66;1848209;77;21046;-59
2022/12/25 01:40:09;;;;;;;19.77;8.50;;;;;;;8.66;75.12;101356.09;1848174;78;21146;-59
2022/12/25 01:42:38;;;;;;;24.30;9.38;;;;;;;8.68;75.04;101345.95;1848345;78;21082;-59
2022/12/25 01:45:28;;;;;;;12.37;6.80;;;;;;;8.70;74.91;101348.55;1848244;78;21094;-59
2022/12/25 01:47:57;;;;;;;16.02;8.45;;;;;;;8.70;74.84;101351.19;1847871;77;21565;-59
2022/12/25 01:50:26;;;;;;;18.00;7.80;;;;;;;8.74;74.68;101346.27;1848258;78;21050;-59
2022/12/25 01:52:56;;;;;;;14.90;6.95;;;;;;;8.74;74.60;101348.90;1848259;78;21018;-59
2022/12/25 01:55:26;;;;;;;16.85;8.73;;;;;;;8.75;74.62;101348.02;1848303;78;21120;-59
2022/12/25 01:57:55;;;;;;;16.90;8.93;;;;;;;8.75;74.54;101347.16;1848226;78;21102;-59
2022/12/25 02:00:24;;;;;;;19.27;9.08;;;;;;;8.75;74.49;101354.58;1848217;78;21584;-59
2022/12/25 02:02:53;;;;;;;19.42;8.83;;;;;;;8.73;74.45;101349.81;1848140;77;21027;-58
2022/12/25 02:05:33;;;;;;;12.13;6.50;;;;;;;8.73;74.48;101350.27;1848210;78;21091;-58
2022/12/25 02:08:11;;;;;;;17.95;9.45;;;;;;;8.73;74.44;101357.69;1873145;75;21076;-59
2022/12/25 02:10:39;;;;;;;16.45;7.90;;;;;;;8.74;74.41;101360.72;1881709;76;21025;-59
2022/12/25 02:13:09;;;;;;;20.75;9.80;;;;;;;8.72;74.36;101357.27;1876169;76;21045;-59
2022/12/25 02:15:40;;;;;;;21.07;10.10;;;;;;;8.71;74.34;101363.42;1876146;76;21527;-59
2022/12/25 02:18:31;;;;;;;20.43;10.03;;;;;;;8.69;74.28;101357.34;1875253;76;21048;-58
2022/12/25 02:21:19;;;;;;;22.98;9.93;;;;;;;8.67;74.22;101356.52;1875473;76;21154;-59
2022/12/25 02:23:51;;;;;;;20.57;9.08;;;;;;;8.64;74.24;101357.89;1876177;76;21111;-59
2022/12/25 02:26:35;;;;;;;16.65;9.33;;;;;;;8.63;74.25;101352.20;1874999;76;21045;-59
2022/12/25 02:29:24;;;;;;;17.12;8.65;;;;;;;8.64;74.32;101346.93;1875163;76;21048;-59
2022/12/25 02:32:11;;;;;;;17.30;8.43;;;;;;;8.68;74.39;101354.30;1875638;76;21123;-59
2022/12/25 02:34:45;;;;;;;17.50;7.67;;;;;;;8.73;74.44;101344.56;1876275;76;21060;-59
2022/12/25 02:37:16;;;;;;;13.83;7.28;;;;;;;8.77;74.39;101350.16;1864599;76;21046;-59
2022/12/25 02:39:57;;;;;;;15.60;8.45;;;;;;;8.79;74.35;101350.98;1876167;76;21053;-59
2022/12/25 03:07:49;;;;;;;15.95;8.45;;;;;;;8.97;73.89;101369.88;1867823;76;21089;-57
2022/12/25 03:13:15;;;;;;;14.78;7.62;;;;;;;8.98;73.79;101378.16;1861008;77;21045;-57
2022/12/25 03:18:33;;;;;;;13.30;6.40;;;;;;;8.95;73.78;101378.24;1861008;77;21040;-58
2022/12/25 03:26:56;;;;;;;21.40;9.60;;;;;;;8.97;73.75;101390.89;1860999;77;22308;-56
2022/12/25 03:32:28;;;;;;;12.30;6.55;;;;;;;8.99;73.68;101385.15;1861051;77;21033;-57
2022/12/25 03:35:24;;;;;;;18.57;8.48;;;;;;;8.98;73.67;101388.23;1860654;77;21092;-56
2022/12/25 04:36:42;;;;;;;24.72;10.68;;;;;;;8.03;80.47;101441.23;1878167;76;21014;-59
2022/12/25 04:39:11;;;;;;;21.62;9.75;;;;;;;8.00;80.61;101448.70;1858970;76;21046;-61
2022/12/25 04:41:39;;;;;;;25.70;11.38;;;;;;;7.98;80.74;101447.86;1867032;76;21535;-62
2022/12/25 04:44:09;;;;;;;23.47;10.70;;;;;;;8.01;80.65;101437.78;1882966;76;21069;-59
2022/12/25 04:46:38;;;;;;;28.73;11.97;;;;;;;8.04;80.46;101439.91;1882837;76;21124;-62
2022/12/25 04:49:07;;;;;;;28.15;11.73;;;;;;;8.06;80.33;101430.25;1882811;76;21070;-61
2022/12/25 04:51:37;;;;;;;22.00;10.32;;;;;;;8.07;80.39;101423.23;1882842;76;21485;-63
2022/12/25 04:54:06;;;;;;;25.97;9.95;;;;;;;8.01;81.49;101421.59;1871901;76;21573;-63
2022/12/25 04:56:35;;;;;;;24.02;10.58;;;;;;;7.97;81.64;101416.41;1858878;77;21007;-64
2022/12/25 04:59:04;;;;;;;23.57;11.38;;;;;;;7.95;81.75;101416.47;1858866;77;21069;-62
2022/12/25 05:01:35;;;;;;;27.00;12.60;;;;;;;7.91;81.72;101410.83;1858869;77;21055;-62
2022/12/25 05:04:04;;;;;;;33.63;13.58;;;;;;;7.85;82.24;101418.36;1858857;77;21473;-58
2022/12/25 05:06:32;;;;;;;28.32;13.15;;;;;;;7.83;82.44;101417.97;1858766;77;21038;-62
2022/12/25 05:09:01;;;;;;;30.65;12.80;;;;;;;7.81;82.55;101413.20;1896793;74;21067;-58
2022/12/25 05:11:30;;;;;;;29.85;12.47;;;;;;;7.81;82.48;101427.63;1928191;74;21121;-52
2022/12/25 05:13:58;;;;;;;30.52;13.00;;;;;;;7.80;82.41;101428.08;1960204;73;21834;-60
2022/12/25 05:16:27;;;;;;;28.95;11.88;;;;;;;7.81;82.28;101426.31;1970106;73;21034;-59
2022/12/25 05:18:56;;;;;;;27.45;13.08;;;;;;;7.83;82.17;101435.02;1970021;73;21095;-59
2022/12/25 05:21:24;;;;;;;37.35;13.95;;;;;;;7.84;82.03;101440.23;1962547;73;21006;-60
2022/12/25 05:23:53;;;;;;;35.25;13.18;;;;;;;7.86;81.90;101447.63;1935173;74;21066;-58
2022/12/25 05:26:24;;;;;;;26.85;11.57;;;;;;;7.87;81.84;101443.24;1935111;74;21034;-56
2022/12/25 05:28:54;;;;;;;26.65;12.73;;;;;;;7.89;81.73;101446.70;1935106;74;21038;-58
2022/12/25 05:31:23;;;;;;;33.75;14.45;;;;;;;7.92;81.60;101447.97;1933662;74;21109;-59
2022/12/25 05:33:52;;;;;;;52.00;21.95;;;;;;;7.93;81.40;101447.09;1930784;73;21038;-63
2022/12/25 05:36:21;;;;;;;46.98;18.87;;;;;;;7.93;81.26;101444.02;1933429;74;21430;-62
2022/12/25 05:38:50;;;;;;;49.03;20.57;;;;;;;7.92;81.17;101447.97;1934637;73;21124;-62
2022/12/25 05:41:19;;;;;;;51.55;20.43;;;;;;;7.91;81.12;101444.91;1933488;74;21521;-61
2022/12/25 05:43:48;;;;;;;47.10;20.62;;;;;;;7.86;81.24;101453.33;1933384;74;21128;-63
2022/12/25 05:46:17;;;;;;;43.75;18.77;;;;;;;7.82;81.44;101455.55;1934367;74;21097;-63
2022/12/25 05:48:45;;;;;;;55.85;21.97;;;;;;;7.80;81.58;101459.96;1934991;74;21107;-59
2022/12/25 05:51:14;;;;;;;49.90;20.20;;;;;;;7.82;81.66;101459.48;1934888;74;21099;-60
2022/12/25 05:53:44;;;;;;;45.78;18.77;;;;;;;7.84;81.53;101461.64;1964011;73;21035;-59
2022/12/25 05:56:13;;;;;;;51.90;22.07;;;;;;;7.85;81.56;101463.38;1969685;73;21496;-59
2022/12/25 05:58:41;;;;;;;45.83;19.00;;;;;;;7.88;81.61;101468.13;1969607;73;21030;-60
2022/12/25 06:01:16;;;;;;;50.38;21.05;;;;;;;7.89;81.63;101472.92;1969744;73;21006;-59
2022/12/25 06:03:45;;;;;;;44.55;19.35;;;;;;;7.91;81.67;101469.41;1937904;73;21489;-59
2022/12/25 06:06:14;;;;;;;44.42;18.42;;;;;;;7.94;81.53;101471.10;1851198;77;21007;-59
2022/12/25 06:08:43;;;;;;;50.52;18.23;;;;;;;7.97;81.39;101469.75;1850930;77;21046;-59
2022/12/25 06:11:14;;;;;;;46.50;19.05;;;;;;;7.92;81.46;101470.27;1833425;78;21057;-59
2022/12/25 06:13:44;;;;;;;50.05;19.62;;;;;;;7.94;81.58;101475.03;1835752;78;21027;-59
2022/12/25 06:16:13;;;;;;;47.13;17.48;;;;;;;7.95;81.66;101476.78;1833689;78;21503;-59
2022/12/25 06:18:44;;;;;;;48.15;19.50;;;;;;;7.98;81.76;101472.77;1839955;77;21063;-57
2022/12/25 06:21:15;;;;;;;51.45;19.87;;;;;;;7.99;81.82;101477.14;1835395;78;21121;-57
2022/12/25 06:23:44;;;;;;;49.08;20.40;;;;;;;8.03;81.79;101476.65;1833880;77;21156;-57
2022/12/25 06:26:15;;;;;;;47.73;18.48;;;;;;;8.04;81.83;101475.31;1835623;78;21109;-58
2022/12/25 06:28:45;;;;;;;45.65;18.90;;;;;;;8.09;81.81;101476.08;1833230;78;21056;-58
2022/12/25 06:31:19;;;;;;;46.70;19.25;;;;;;;8.14;81.69;101485.66;1841277;77;21056;-57
2022/12/25 06:33:48;;;;;;;44.60;17.45;;;;;;;8.18;81.61;101476.38;1835591;78;21076;-58
2022/12/25 06:36:19;;;;;;;58.68;23.92;;;;;;;8.22;81.48;101475.88;1833427;78;21163;-58
2022/12/25 06:38:48;;;;;;;63.13;23.07;;;;;;;8.26;81.37;101481.48;1835389;78;21055;-62
2022/12/25 06:41:20;;;;;;;59.73;23.83;;;;;;;8.29;81.27;101465.70;1833473;78;21146;-60
2022/12/25 06:43:54;;;;;;;46.33;19.20;;;;;;;8.33;81.21;101473.07;1835270;78;21162;-64
2022/12/25 06:46:24;;;;;;;41.90;17.52;;;;;;;8.37;81.16;101476.91;1833803;78;21480;-65
2022/12/25 06:48:53;;;;;;;45.90;19.85;;;;;;;8.42;81.23;101476.42;1835299;78;21129;-65
2022/12/25 06:51:30;;;;;;;50.10;19.57;;;;;;;8.47;81.33;101483.77;1833481;78;21064;-58
2022/12/25 06:54:02;;;;;;;45.05;18.02;;;;;;;8.52;81.41;101481.49;1835351;78;21031;-60
2022/12/25 06:56:30;;;;;;;41.05;15.45;;;;;;;8.56;81.47;101481.84;1833839;78;21073;-59
2022/12/25 06:59:02;;;;;;;45.25;18.98;;;;;;;8.61;81.53;101483.95;1835190;78;21577;-59
2022/12/25 07:01:33;;;;;;;47.73;20.02;;;;;;;8.66;81.42;101492.16;1833569;78;21170;-58
2022/12/25 07:04:07;;;;;;;49.95;17.92;;;;;;;8.69;81.43;101492.56;1835190;78;21055;-57
2022/12/25 07:06:36;;;;;;;50.03;19.67;;;;;;;8.70;81.61;101492.96;1851965;77;21446;-60
2022/12/25 07:09:05;;;;;;;51.55;19.37;;;;;;;8.71;81.73;101493.39;1959591;73;21078;-60
2022/12/25 07:11:33;;;;;;;47.05;18.32;;;;;;;8.72;81.81;101499.50;1928718;73;21063;-60
2022/12/25 07:14:02;;;;;;;50.92;20.10;;;;;;;8.74;81.87;101493.31;1928166;74;21132;-61
2022/12/25 07:16:31;;;;;;;35.15;15.03;;;;;;;8.75;81.83;101504.25;1916789;74;21047;-60
2022/12/25 07:19:02;;;;;;;37.23;15.10;;;;;;;8.76;81.78;101504.68;1894927;76;21081;-60
2022/12/25 07:21:31;;;;;;;38.65;16.12;;;;;;;8.78;81.73;101502.88;1895025;76;21038;-61
2022/12/25 07:23:59;;;;;;;32.90;14.00;;;;;;;8.78;81.67;101500.27;1894830;76;21074;-61
2022/12/25 07:26:28;;;;;;;15.40;8.05;;;;;;;8.79;81.79;101504.59;1891362;76;21053;-60
2022/12/25 07:28:57;;;;;;;16.85;7.58;;;;;;;8.84;81.85;101495.33;1888094;76;21123;-61
2022/12/25 07:31:26;;;;;;;13.75;5.37;;;;;;;8.91;81.57;101490.38;1888089;76;21481;-61
2022/12/25 07:33:55;;;;;;;18.20;9.35;;;;;;;8.96;81.38;101499.47;1888328;76;21022;-61
2022/12/25 07:36:24;;;;;;;14.80;8.15;;;;;;;9.02;81.10;101501.53;1888486;76;21167;-60
2022/12/25 07:38:52;;;;;;;21.70;9.50;;;;;;;9.08;80.90;101505.80;1888043;76;21081;-61
2022/12/25 07:41:21;;;;;;;16.52;8.20;;;;;;;9.12;80.81;101503.97;1888106;76;21147;-60
2022/12/25 07:43:52;;;;;;;18.87;7.47;;;;;;;9.15;80.75;101506.51;1888117;76;21066;-61
2022/12/25 07:46:22;;;;;;;18.65;9.55;;;;;;;9.19;80.61;101505.58;1838474;77;21031;-61
2022/12/25 07:48:51;;;;;;;19.57;10.05;;;;;;;9.22;80.62;101502.86;1926032;74;21406;-60
2022/12/25 07:51:19;;;;;;;19.35;9.85;;;;;;;9.25;80.60;101501.03;1851614;77;21125;-60
2022/12/25 07:53:48;;;;;;;20.10;9.85;;;;;;;9.30;80.51;101507.98;1886880;76;21023;-60
2022/12/25 07:56:20;;;;;;;18.05;9.08;;;;;;;9.32;80.48;101500.92;1879669;76;21094;-60
2022/12/25 07:58:49;;;;;;;19.30;9.15;;;;;;;9.35;80.51;101495.58;1860351;76;21141;-60
2022/12/25 08:01:23;;;;;;;15.95;7.45;;;;;;;9.41;80.53;101496.32;1846671;78;21134;-61
2022/12/25 08:03:54;;;;;;;17.85;8.35;;;;;;;9.47;80.49;101498.80;1846630;77;21060;-60
2022/12/25 08:06:28;;;;;;;20.72;10.50;;;;;;;9.54;80.29;101498.23;1846880;78;21135;-60
2022/12/25 08:08:55;;;;;;;23.05;10.18;;;;;;;9.63;80.32;101493.22;1850632;77;21054;-60
2022/12/25 08:11:23;;;;;;;26.73;10.70;;;;;;;9.75;80.22;101499.48;1847746;77;21173;-59
2022/12/25 08:13:52;;;;;;;21.40;10.38;;;;;;;9.88;80.01;101501.84;1841328;78;21474;-62
2022/12/25 08:16:21;;;;;;;25.88;10.15;;;;;;;9.98;79.75;101497.64;1843171;78;21085;-60
2022/12/25 08:18:50;;;;;;;13.98;7.35;;;;;;;10.08;79.46;101493.47;1840823;78;21121;-60
2022/12/25 08:21:18;;;;;;;22.37;9.45;;;;;;;10.19;79.17;101487.47;1841332;78;21062;-60
2022/12/25 08:23:48;;;;;;;18.67;9.33;;;;;;;10.37;78.84;101488.34;1841471;78;21039;-61
2022/12/25 08:26:22;;;;;;;18.23;9.65;;;;;;;10.59;78.35;101485.15;1840602;78;21470;-60
2022/12/25 08:28:51;;;;;;;17.90;9.33;;;;;;;10.77;78.08;101483.75;1841280;78;21042;-62
2022/12/25 08:31:28;;;;;;;18.75;9.48;;;;;;;10.84;77.87;101484.46;1830438;78;21588;-63
2022/12/25 08:33:59;;;;;;;17.17;8.78;;;;;;;10.81;77.64;101484.11;1836015;78;21042;-61
2022/12/25 08:36:28;;;;;;;18.27;9.28;;;;;;;10.82;77.66;101480.08;1841368;78;21042;-60
2022/12/25 08:38:57;;;;;;;20.95;9.90;;;;;;;10.86;77.46;101472.95;1841399;78;21011;-58
2022/12/25 08:41:26;;;;;;;19.62;9.43;;;;;;;10.90;77.28;101469.78;1841299;78;21067;-57
2022/12/25 08:43:55;;;;;;;23.30;10.70;;;;;;;10.94;77.11;101471.45;1840581;78;21539;-57
2022/12/25 08:46:24;;;;;;;19.65;9.68;;;;;;;10.96;76.96;101474.90;1843024;78;21093;-57
2022/12/25 08:48:53;;;;;;;19.25;9.58;;;;;;;10.94;76.60;101469.67;1834585;78;21033;-60
2022/12/25 08:51:24;;;;;;;16.77;8.15;;;;;;;10.97;76.38;101471.34;1834773;78;21491;-59
2022/12/25 08:53:55;;;;;;;17.55;8.88;;;;;;;10.98;76.22;101469.12;1827562;78;21125;-61
2022/12/25 08:56:25;;;;;;;18.45;8.68;;;;;;;10.97;75.92;101467.38;1816850;78;21059;-59
2022/12/25 08:58:54;;;;;;;17.42;8.78;;;;;;;10.96;75.79;101465.67;1804709;79;21084;-59
2022/12/25 09:01:23;;;;;;;20.43;10.82;;;;;;;10.93;75.47;101465.29;1826730;78;21043;-60
2022/12/25 09:03:51;;;;;;;17.30;8.05;;;;;;;10.97;75.54;101468.70;1818126;78;21193;-61
2022/12/25 09:06:23;;;;;;;20.37;10.28;;;;;;;11.00;75.46;101467.30;1816898;79;21119;-60
2022/12/25 09:08:50;;;;;;;17.70;9.48;;;;;;;11.07;75.14;101469.32;1804492;79;21139;-60
2022/12/25 09:11:23;;;;;;;19.23;9.03;;;;;;;11.16;74.89;101471.22;1812894;77;21121;-61
2022/12/25 09:13:52;;;;;;;25.00;10.70;;;;;;;11.30;74.60;101472.57;1866315;77;21044;-61
2022/12/25 09:16:22;;;;;;;23.70;11.25;;;;;;;11.46;74.42;101469.88;1857915;76;21136;-62
2022/12/25 09:18:51;;;;;;;24.18;10.45;;;;;;;11.59;74.22;101469.89;1835335;78;21174;-62
2022/12/25 09:21:20;;;;;;;20.77;9.50;;;;;;;11.72;74.08;101466.88;1833439;78;21046;-62
2022/12/25 09:23:49;;;;;;;24.15;10.95;;;;;;;11.76;73.90;101464.53;1866134;77;21059;-62
2022/12/25 09:26:19;;;;;;;21.93;9.63;;;;;;;11.80;73.71;101458.23;1839651;76;21118;-61
2022/12/25 09:28:48;;;;;;;20.60;9.40;;;;;;;11.82;73.58;101460.36;1925524;74;21563;-61
2022/12/25 09:31:16;;;;;;;21.02;9.83;;;;;;;11.81;73.40;101463.94;1925418;74;21018;-62
2022/12/25 09:33:45;;;;;;;20.68;10.23;;;;;;;11.80;73.22;101459.55;1925517;74;21038;-60
2022/12/25 09:36:13;;;;;;;21.70;9.23;;;;;;;11.78;72.88;101460.06;1925523;74;21014;-60
2022/12/25 09:38:43;;;;;;;18.60;9.60;;;;;;;11.76;72.51;101460.58;1925598;74;21132;-59
2022/12/25 09:41:20;;;;;;;18.45;9.18;;;;;;;11.83;72.45;101459.47;1925532;74;21054;-59
2022/12/25 09:43:55;;;;;;;12.85;7.55;;;;;;;11.92;71.90;101461.84;1925406;74;21101;-60
2022/12/25 09:46:26;;;;;;;19.60;9.38;;;;;;;12.36;70.26;101461.25;1923798;74;21140;-60
2022/12/25 09:49:22;;;;;;;17.02;8.00;;;;;;;12.62;69.58;101457.67;1925517;74;21002;-69
2022/12/25 09:51:53;;;;;;;17.57;9.30;;;;;;;13.08;68.34;101450.67;1925599;74;21093;-68
2022/12/25 09:54:25;;;;;;;17.92;8.88;;;;;;;13.30;67.64;101457.36;1925081;74;21038;-68
2022/12/25 09:56:53;;;;;;;11.80;6.20;;;;;;;13.47;67.33;101447.42;1923080;74;21199;-68
2022/12/25 09:59:25;;;;;;;14.55;7.90;;;;;;;13.63;66.37;101448.13;1925641;74;21070;-67
2022/12/25 10:02:13;;;;;;;16.20;7.25;;;;;;;13.82;66.16;101447.78;1925728;74;21124;-68
2022/12/25 10:04:56;;;;;;;22.42;7.85;;;;;;;14.25;64.73;101436.69;1916270;74;21469;-69
2022/12/25 10:07:45;;;;;;;16.12;7.97;;;;;;;14.88;62.84;101429.55;1924356;74;21038;-61
2022/12/25 10:10:31;;;;;;;13.53;7.33;;;;;;;15.01;61.78;101432.02;1925064;74;21035;-58
2022/12/25 10:13:21;;;;;;;13.35;7.20;;;;;;;15.08;61.56;101423.33;1895552;74;21179;-58
2022/12/25 10:16:17;;;;;;;15.15;7.92;;;;;;;15.16;61.51;101423.80;1883119;76;21441;-58
2022/12/25 10:19:06;;;;;;;20.75;7.50;;;;;;;14.96;60.63;101425.62;1882936;76;21030;-58
2022/12/25 10:21:35;;;;;;;12.35;6.45;;;;;;;14.63;61.59;101421.41;1882919;76;21499;-60
2022/12/25 10:24:16;;;;;;;13.10;6.28;;;;;;;14.32;59.93;101419.22;1882890;76;21441;-65
2022/12/25 10:26:45;;;;;;;14.30;6.87;;;;;;;14.07;61.08;101420.27;1882907;76;21034;-65
2022/12/25 10:29:18;;;;;;;14.65;7.33;;;;;;;13.75;61.45;101425.14;1882896;76;21030;-65
2022/12/25 10:31:50;;;;;;;16.00;7.55;;;;;;;13.46;61.99;101417.95;1882936;76;21108;-60
2022/12/25 10:34:18;;;;;;;13.98;6.87;;;;;;;13.22;62.16;101421.04;1882907;76;21141;-59
2022/12/25 10:36:48;;;;;;;14.75;7.72;;;;;;;13.05;62.93;101416.41;1882899;76;21034;-48
2022/12/25 10:39:22;;;;;;;15.23;6.87;;;;;;;12.89;62.76;101420.13;1882873;76;21562;-57
2022/12/25 10:42:12;;;;;;;15.75;7.97;;;;;;;12.78;63.28;101429.36;1882662;76;21085;-57
2022/12/25 10:44:41;;;;;;;13.28;7.33;;;;;;;12.68;63.33;101422.23;1882253;76;21536;-60
2022/12/25 10:47:10;;;;;;;15.32;7.70;;;;;;;12.53;63.18;101423.66;1882928;76;21021;-66
2022/12/25 10:49:40;;;;;;;13.85;7.65;;;;;;;12.47;63.52;101422.58;1882900;76;21005;-66
2022/12/25 10:52:20;;;;;;;14.80;7.28;;;;;;;12.40;63.61;101427.67;1882884;76;21525;-66
2022/12/25 10:54:49;;;;;;;13.58;6.72;;;;;;;12.25;63.05;101424.65;1882941;76;21082;-66
2022/12/25 10:57:21;;;;;;;14.30;7.58;;;;;;;12.15;63.30;101433.80;1882881;76;21131;-62
2022/12/25 11:00:00;;;;;;;20.37;8.03;;;;;;;12.04;63.78;101426.70;1882877;76;21066;-61
2022/12/25 11:02:31;;;;;;;16.07;8.20;;;;;;;11.95;63.68;101423.48;1882492;76;21480;-62
2022/12/25 11:05:02;;;;;;;15.53;8.00;;;;;;;11.86;63.95;101422.44;1825941;78;21630;-62
2022/12/25 11:07:33;;;;;;;14.33;7.92;;;;;;;11.79;64.13;101424.87;1826824;78;21077;-62
2022/12/25 11:10:05;;;;;;;14.70;7.03;;;;;;;11.77;64.38;101421.42;1836141;78;21059;-61
2022/12/25 11:12:36;;;;;;;15.18;8.20;;;;;;;11.73;64.38;101417.13;1806766;77;21531;-62
2022/12/25 11:15:24;;;;;;;16.17;7.87;;;;;;;11.72;64.63;101419.38;1853627;77;21037;-62
2022/12/25 11:17:53;;;;;;;17.95;7.97;;;;;;;11.75;64.77;101423.25;1853630;77;21022;-62
2022/12/25 11:20:24;;;;;;;17.70;8.73;;;;;;;11.80;64.86;101425.25;1853502;77;21053;-62
2022/12/25 11:22:53;;;;;;;15.13;8.50;;;;;;;11.85;64.77;101422.48;1853638;77;21453;-62
2022/12/25 11:25:25;;;;;;;20.48;9.20;;;;;;;11.88;64.82;101421.92;1853527;77;21504;-62
2022/12/25 11:28:05;;;;;;;17.73;9.03;;;;;;;11.96;64.90;101423.01;1853570;77;21054;-62
2022/12/25 11:30:35;;;;;;;19.00;8.93;;;;;;;12.07;64.86;101432.74;1853755;77;21107;-61
2022/12/25 11:33:07;;;;;;;15.53;7.47;;;;;;;12.14;64.83;101433.41;1853650;77;21038;-66
2022/12/25 11:35:41;;;;;;;13.62;7.53;;;;;;;12.21;64.81;101436.23;1855187;77;21576;-66
2022/12/25 11:38:10;;;;;;;16.97;8.10;;;;;;;12.25;64.71;101439.17;1846180;78;21500;-65
2022/12/25 11:40:51;;;;;;;15.45;6.80;;;;;;;12.27;64.71;101432.05;1846561;78;21190;-65
2022/12/25 11:43:25;;;;;;;14.43;8.78;;;;;;;12.26;64.59;101436.92;1846694;78;21503;-67
2022/12/25 11:45:59;;;;;;;18.55;7.90;;;;;;;12.19;64.46;101442.47;1846684;78;21113;-61
2022/12/25 11:48:46;;;;;;;17.90;7.47;;;;;;;12.14;64.62;101445.28;1845596;78;21134;-60
2022/12/25 11:51:16;;;;;;;14.33;7.30;;;;;;;12.12;64.69;101444.48;1846646;78;21156;-59
2022/12/25 11:53:47;;;;;;;16.93;8.18;;;;;;;12.08;64.70;101445.47;1846674;78;21645;-60
2022/12/25 11:56:19;;;;;;;13.72;7.92;;;;;;;12.06;64.81;101445.55;1816125;78;21165;-60
2022/12/25 11:58:53;;;;;;;19.25;8.58;;;;;;;12.03;64.76;101442.15;1853487;77;21045;-60
2022/12/25 12:01:36;;;;;;;18.15;8.40;;;;;;;12.05;64.78;101442.95;1853418;77;21042;-60
2022/12/25 12:04:08;;;;;;;16.62;7.92;;;;;;;12.09;64.77;101437.97;1853724;77;21049;-60
2022/12/25 12:06:45;;;;;;;16.32;8.53;;;;;;;12.07;64.73;101446.41;1854880;77;21036;-60
2022/12/25 12:09:25;;;;;;;18.02;8.63;;;;;;;12.03;64.76;101446.11;1855136;77;21064;-60
2022/12/25 12:11:59;;;;;;;16.73;7.90;;;;;;;11.96;64.76;101448.94;1854753;77;21036;-60
2022/12/25 12:14:49;;;;;;;21.68;9.68;;;;;;;11.88;64.83;101454.91;1837341;76;21096;-60
2022/12/25 12:17:19;;;;;;;17.67;8.50;;;;;;;11.82;64.94;101449.81;1842682;78;21146;-60
2022/12/25 12:19:48;;;;;;;20.85;8.88;;;;;;;11.81;65.01;101452.53;1834674;78;21127;-60
2022/12/25 12:22:25;;;;;;;21.90;8.88;;;;;;;11.74;64.94;101447.89;1834535;78;21047;-60
2022/12/25 12:25:02;;;;;;;18.15;8.38;;;;;;;11.66;65.11;101451.25;1834737;78;21069;-60
2022/12/25 12:27:37;;;;;;;16.48;7.17;;;;;;;11.61;65.18;101451.84;1834610;78;21147;-60
2022/12/25 12:30:08;;;;;;;20.40;8.33;;;;;;;11.55;65.14;101455.08;1834783;78;21131;-60
2022/12/25 12:32:46;;;;;;;16.23;8.58;;;;;;;11.47;64.95;101455.80;1831719;78;21503;-60
2022/12/25 12:35:21;;;;;;;18.73;8.65;;;;;;;11.42;64.83;101457.70;1834633;78;21565;-60
2022/12/25 12:37:52;;;;;;;18.25;8.68;;;;;;;11.37;64.99;101457.83;1834683;78;21580;-60
2022/12/25 12:40:27;;;;;;;17.50;8.15;;;;;;;11.37;65.01;101464.88;1834624;78;21170;-60
2022/12/25 12:42:56;;;;;;;20.88;8.38;;;;;;;11.36;65.20;101467.09;1834443;78;21558;-60
2022/12/25 12:45:37;;;;;;;20.62;8.90;;;;;;;11.33;65.25;101465.89;1834611;78;21127;-60
2022/12/25 12:48:16;;;;;;;16.07;7.78;;;;;;;11.30;65.35;101470.79;1834600;78;21060;-64
2022/12/25 12:50:45;;;;;;;17.67;7.83;;;;;;;11.27;65.36;101470.91;1834606;78;21049;-65
2022/12/25 12:53:25;;;;;;;18.40;8.43;;;;;;;11.24;65.49;101474.94;1842613;77;21148;-59
2022/12/25 12:55:54;;;;;;;21.87;8.93;;;;;;;11.23;65.54;101470.56;1833362;77;21156;-58
2022/12/25 12:58:35;;;;;;;17.60;9.95;;;;;;;11.19;65.43;101467.19;1834460;77;21131;-56
2022/12/25 13:01:09;;;;;;;23.62;10.45;;;;;;;11.18;65.62;101469.40;1841421;77;21096;-57
2022/12/25 13:04:12;;;;;;;23.80;9.98;;;;;;;11.16;65.71;101473.00;1789003;78;21493;-58
2022/12/25 13:06:44;;;;;;;20.97;9.75;;;;;;;11.13;65.78;101472.62;1831459;78;21084;-57
2022/12/25 13:09:40;;;;;;;19.07;8.55;;;;;;;11.09;65.86;101473.63;1820231;77;21054;-56
2022/12/25 13:12:10;;;;;;;19.98;8.53;;;;;;;11.07;65.97;101472.81;1839646;78;21108;-58
2022/12/25 13:14:40;;;;;;;19.65;8.00;;;;;;;11.03;66.05;101472.92;1824635;77;21075;-59
2022/12/25 13:17:09;;;;;;;16.40;8.30;;;;;;;10.99;66.07;101476.10;1849459;77;21207;-56
2022/12/25 13:19:39;;;;;;;20.77;8.65;;;;;;;10.96;66.21;101474.90;1850960;77;21574;-54
2022/12/25 13:22:09;;;;;;;20.12;9.55;;;;;;;10.95;66.26;101477.11;1846409;77;21033;-54